createdAt,value
2022-07-29T00:00:59.609Z,19.69
2022-07-29T00:03:26.250Z,19.67
2022-07-29T00:05:54.028Z,19.63
2022-07-29T00:08:21.011Z,19.57
2022-07-29T00:10:47.672Z,19.54
2022-07-29T00:13:14.063Z,19.51
2022-07-29T00:15:40.774Z,19.48
2022-07-29T00:18:07.298Z,19.45
2022-07-29T00:20:33.823Z,19.43
2022-07-29T00:23:00.277Z,19.42
2022-07-29T00:25:26.721Z,19.41
2022-07-29T00:27:53.153Z,19.40
2022-07-29T00:30:19.577Z,19.38
2022-07-29T00:32:46.006Z,19.35
2022-07-29T00:35:31.307Z,19.32
2022-07-29T00:37:57.709Z,19.27
2022-07-29T00:40:24.349Z,19.25
2022-07-29T00:42:52.711Z,19.24
2022-07-29T00:45:19.848Z,19.20
2022-07-29T00:47:47.553Z,19.19
2022-07-29T00:50:14.970Z,19.19
2022-07-29T00:52:42.677Z,19.19
2022-07-29T00:55:11.747Z,19.18
2022-07-29T00:57:38.940Z,19.13
2022-07-29T01:00:07.845Z,19.13
2022-07-29T01:02:34.437Z,19.12
2022-07-29T01:05:02.484Z,19.12
2022-07-29T01:07:30.755Z,19.05
2022-07-29T01:09:58.016Z,19.04
2022-07-29T01:12:27.204Z,19.02
2022-07-29T01:14:56.169Z,19.01
2022-07-29T01:17:29.658Z,18.99
2022-07-29T01:20:04.663Z,18.97
2022-07-29T01:22:50.250Z,18.92
2022-07-29T01:25:58.200Z,18.88
2022-07-29T01:28:55.480Z,18.84
2022-07-29T01:31:29.124Z,18.82
2022-07-29T01:34:02.641Z,18.79
2022-07-29T01:36:36.558Z,18.75
2022-07-29T01:39:19.160Z,18.70
2022-07-29T01:41:56.987Z,18.67
2022-07-29T01:44:42.844Z,18.60
2022-07-29T01:47:16.876Z,18.57
2022-07-29T01:49:49.032Z,18.51
2022-07-29T01:52:22.879Z,18.47
2022-07-29T01:54:56.629Z,18.43
2022-07-29T01:57:34.555Z,18.35
2022-07-29T02:00:01.986Z,18.30
2022-07-29T02:02:31.152Z,18.27
2022-07-29T02:04:59.893Z,18.20
2022-07-29T02:07:30.229Z,18.16
2022-07-29T02:09:58.937Z,18.09
2022-07-29T02:12:28.288Z,18.07
2022-07-29T02:14:57.860Z,18.00
2022-07-29T02:17:33.689Z,17.92
2022-07-29T02:20:02.571Z,17.84
2022-07-29T02:22:31.439Z,17.80
2022-07-29T02:25:01.759Z,17.73
2022-07-29T02:27:31.539Z,17.68
2022-07-29T02:30:01.354Z,17.65
2022-07-29T02:32:29.360Z,17.60
2022-07-29T02:34:57.694Z,17.57
2022-07-29T02:37:25.720Z,17.54
2022-07-29T02:39:54.770Z,17.51
2022-07-29T02:42:23.786Z,17.47
2022-07-29T02:44:51.271Z,17.42
2022-07-29T02:47:23.059Z,17.38
2022-07-29T02:50:05.453Z,17.34
2022-07-29T02:52:38.962Z,17.29
2022-07-29T02:55:23.754Z,17.28
2022-07-29T02:57:58.033Z,17.27
2022-07-29T03:00:33.416Z,17.22
2022-07-29T03:03:04.559Z,17.19
2022-07-29T03:05:32.224Z,17.14
2022-07-29T03:08:02.913Z,17.09
2022-07-29T03:10:29.958Z,17.02
2022-07-29T03:12:57.445Z,16.97
2022-07-29T03:15:26.888Z,16.93
2022-07-29T03:17:53.963Z,16.90
2022-07-29T03:20:21.381Z,16.88
2022-07-29T03:22:48.088Z,16.83
2022-07-29T03:25:16.637Z,16.75
2022-07-29T03:27:43.573Z,16.67
2022-07-29T03:30:11.103Z,16.61
2022-07-29T03:32:37.901Z,16.56
2022-07-29T03:35:05.945Z,16.50
2022-07-29T03:37:34.321Z,16.45
2022-07-29T03:40:03.965Z,16.44
2022-07-29T03:42:34.461Z,16.41
2022-07-29T03:45:06.293Z,16.40
2022-07-29T03:47:50.607Z,16.41
2022-07-29T03:50:20.404Z,16.43
2022-07-29T03:52:47.701Z,16.45
2022-07-29T03:55:14.973Z,16.45
2022-07-29T03:57:42.625Z,16.45
2022-07-29T04:00:09.841Z,16.44
2022-07-29T04:02:38.755Z,16.43
2022-07-29T04:05:05.608Z,16.42
2022-07-29T04:07:32.138Z,16.38
2022-07-29T04:09:58.520Z,16.38
2022-07-29T04:12:25.707Z,16.36
2022-07-29T04:14:52.165Z,16.34
2022-07-29T04:17:18.568Z,16.32
2022-07-29T04:19:45.007Z,16.32
2022-07-29T04:22:11.496Z,16.33
2022-07-29T04:24:37.915Z,16.36
2022-07-29T04:27:04.495Z,16.36
2022-07-29T04:29:30.925Z,16.38
2022-07-29T04:31:57.316Z,16.41
2022-07-29T04:34:28.181Z,16.42
2022-07-29T04:36:54.974Z,16.41
2022-07-29T04:39:23.249Z,16.41
2022-07-29T04:41:51.104Z,16.42
2022-07-29T04:44:19.674Z,16.43
2022-07-29T04:46:46.513Z,16.47
2022-07-29T04:49:14.178Z,16.49
2022-07-29T04:51:40.800Z,16.53
2022-07-29T04:54:07.239Z,16.58
2022-07-29T04:56:33.641Z,16.62
2022-07-29T04:59:00.073Z,16.65
2022-07-29T05:01:26.646Z,16.72
2022-07-29T05:03:56.995Z,16.76
2022-07-29T05:06:26.377Z,16.80
2022-07-29T05:08:52.778Z,16.83
2022-07-29T05:11:21.856Z,16.87
2022-07-29T05:13:48.986Z,16.90
2022-07-29T05:16:15.548Z,16.94
2022-07-29T05:18:43.094Z,17.00
2022-07-29T05:21:09.681Z,17.03
2022-07-29T05:23:36.619Z,17.07
2022-07-29T05:26:03.027Z,17.12
2022-07-29T05:28:29.638Z,17.17
2022-07-29T05:30:56.124Z,17.25
2022-07-29T05:33:35.323Z,17.30
2022-07-29T05:36:06.464Z,17.36
2022-07-29T05:38:33.076Z,17.42
2022-07-29T05:41:00.486Z,17.47
2022-07-29T05:43:29.747Z,17.53
2022-07-29T05:45:56.401Z,17.57
2022-07-29T05:48:22.961Z,17.61
2022-07-29T05:50:49.341Z,17.66
2022-07-29T05:53:19.935Z,17.71
2022-07-29T05:55:48.082Z,17.80
2022-07-29T05:58:14.583Z,17.88
2022-07-29T06:00:41.168Z,17.99
2022-07-29T06:03:07.693Z,18.08
2022-07-29T06:05:34.125Z,18.15
2022-07-29T06:08:00.565Z,18.25
2022-07-29T06:10:27.811Z,18.36
2022-07-29T06:12:54.459Z,18.46
2022-07-29T06:15:21.021Z,18.53
2022-07-29T06:18:00.114Z,18.66
2022-07-29T06:20:30.679Z,18.83
2022-07-29T06:22:57.663Z,19.00
2022-07-29T06:25:24.107Z,19.16
2022-07-29T06:27:50.553Z,19.32
2022-07-29T06:30:17.045Z,19.46
2022-07-29T06:32:43.597Z,19.55
2022-07-29T06:35:38.028Z,19.71
2022-07-29T06:37:59.582Z,19.85
2022-07-29T06:40:45.338Z,20.00
2022-07-29T06:43:11.790Z,20.16
2022-07-29T06:45:42.053Z,20.29
2022-07-29T06:48:08.876Z,20.42
2022-07-29T06:50:35.556Z,20.48
2022-07-29T06:53:01.993Z,20.61
2022-07-29T06:55:28.381Z,20.68
2022-07-29T06:57:54.808Z,20.72
2022-07-29T07:00:21.523Z,20.79
2022-07-29T07:02:48.064Z,20.85
2022-07-29T07:05:14.629Z,20.86
2022-07-29T07:07:41.174Z,20.88
2022-07-29T07:10:08.061Z,20.89
2022-07-29T07:12:34.617Z,20.93
2022-07-29T07:15:01.130Z,21.00
2022-07-29T07:17:27.555Z,21.09
2022-07-29T07:19:54.124Z,21.18
2022-07-29T07:22:20.599Z,21.26
2022-07-29T07:24:48.097Z,21.36
2022-07-29T07:27:14.528Z,21.45
2022-07-29T07:29:43.518Z,21.52
2022-07-29T07:32:11.170Z,21.59
2022-07-29T07:34:38.907Z,21.62
2022-07-29T07:37:06.176Z,21.68
2022-07-29T07:39:32.835Z,21.68
2022-07-29T07:41:59.546Z,21.71
2022-07-29T07:44:26.044Z,21.75
2022-07-29T07:46:53.347Z,21.77
2022-07-29T07:49:22.553Z,21.88
2022-07-29T07:51:50.984Z,21.95
2022-07-29T07:54:18.456Z,22.00
2022-07-29T07:56:49.827Z,22.05
2022-07-29T07:59:19.415Z,22.11
2022-07-29T08:01:55.151Z,22.19
2022-07-29T08:04:27.300Z,22.27
2022-07-29T08:06:57.832Z,22.33
2022-07-29T08:09:30.334Z,22.34
2022-07-29T08:11:58.725Z,22.42
2022-07-29T08:14:25.236Z,22.50
2022-07-29T08:16:52.379Z,22.46
2022-07-29T08:19:19.270Z,22.52
2022-07-29T08:21:46.203Z,22.55
2022-07-29T08:24:31.073Z,22.59
2022-07-29T08:26:57.606Z,22.65
2022-07-29T08:29:24.040Z,22.72
2022-07-29T08:31:50.847Z,22.78
2022-07-29T08:34:17.483Z,22.87
2022-07-29T08:36:44.128Z,22.99
2022-07-29T08:39:10.528Z,23.08
2022-07-29T08:41:37.141Z,23.06
2022-07-29T08:44:04.307Z,23.17
2022-07-29T08:46:30.821Z,23.11
2022-07-29T08:48:57.353Z,23.26
2022-07-29T08:51:26.379Z,23.41
2022-07-29T08:53:53.225Z,23.49
2022-07-29T08:56:20.244Z,23.45
2022-07-29T08:58:50.705Z,23.59
2022-07-29T09:01:35.852Z,23.74
2022-07-29T09:04:07.125Z,23.88
2022-07-29T09:06:38.344Z,23.96
2022-07-29T09:09:05.158Z,24.06
2022-07-29T09:11:33.430Z,24.17
2022-07-29T09:14:00.262Z,24.28
2022-07-29T09:16:44.086Z,24.38
2022-07-29T09:19:34.380Z,24.51
2022-07-29T09:22:04.046Z,24.60
2022-07-29T09:24:44.993Z,24.73
2022-07-29T09:27:27.615Z,24.85
2022-07-29T09:29:58.885Z,24.94
2022-07-29T09:32:25.598Z,25.08
2022-07-29T09:34:54.636Z,25.21
2022-07-29T09:37:29.273Z,25.36
2022-07-29T09:39:55.886Z,25.52
2022-07-29T09:42:30.359Z,25.62
2022-07-29T09:44:56.849Z,25.78
2022-07-29T09:47:26.797Z,25.88
2022-07-29T09:50:01.759Z,25.88
2022-07-29T09:52:29.874Z,25.99
2022-07-29T09:55:10.047Z,26.04
2022-07-29T09:57:40.846Z,26.04
2022-07-29T10:00:10.476Z,26.05
2022-07-29T10:02:39.081Z,26.02
2022-07-29T10:05:08.003Z,26.09
2022-07-29T10:07:48.363Z,26.06
2022-07-29T10:10:27.135Z,26.26
2022-07-29T10:13:15.196Z,26.41
2022-07-29T10:15:45.244Z,26.58
2022-07-29T10:18:13.475Z,26.60
2022-07-29T10:20:40.627Z,26.52
2022-07-29T10:23:07.175Z,26.58
2022-07-29T10:25:33.633Z,26.67
2022-07-29T10:28:00.096Z,26.79
2022-07-29T10:30:27.266Z,26.87
2022-07-29T10:33:08.964Z,26.98
2022-07-29T10:35:53.552Z,27.03
2022-07-29T10:38:24.747Z,27.18
2022-07-29T10:41:22.103Z,27.44
2022-07-29T10:43:51.204Z,27.43
2022-07-29T10:46:19.492Z,27.50
2022-07-29T10:49:04.893Z,27.53
2022-07-29T10:51:57.660Z,27.70
2022-07-29T10:54:42.416Z,27.75
2022-07-29T10:57:17.662Z,27.74
2022-07-29T10:59:46.332Z,27.68
2022-07-29T11:02:42.179Z,27.85
2022-07-29T11:05:11.518Z,27.88
2022-07-29T11:10:31.318Z,27.76
2022-07-29T11:12:59.114Z,27.98
2022-07-29T11:15:28.639Z,28.11
2022-07-29T11:17:59.277Z,28.29
2022-07-29T11:20:39.641Z,28.58
2022-07-29T11:23:34.788Z,28.73
2022-07-29T11:26:10.299Z,28.76
2022-07-29T11:28:50.758Z,28.84
2022-07-29T11:31:20.512Z,28.98
2022-07-29T11:33:55.861Z,29.21
2022-07-29T11:36:28.119Z,29.46
2022-07-29T11:39:26.477Z,29.78
2022-07-29T11:42:32.194Z,30.00
2022-07-29T11:45:42.916Z,30.26
2022-07-29T11:48:05.336Z,30.28
2022-07-29T11:50:45.674Z,30.14
2022-07-29T11:53:13.645Z,30.02
2022-07-29T11:55:51.356Z,29.95
2022-07-29T11:58:23.008Z,29.98
2022-07-29T12:00:52.502Z,30.02
2022-07-29T12:03:33.490Z,30.07
2022-07-29T12:06:13.917Z,30.09
2022-07-29T12:08:43.727Z,30.05
2022-07-29T12:11:20.383Z,30.14
2022-07-29T12:13:49.303Z,30.19
2022-07-29T12:16:16.126Z,30.40
2022-07-29T12:19:03.778Z,30.53
2022-07-29T12:21:56.431Z,30.50
2022-07-29T12:24:23.429Z,30.29
2022-07-29T12:26:58.503Z,30.13
2022-07-29T12:29:35.204Z,30.06
2022-07-29T12:32:05.379Z,30.13
2022-07-29T12:34:32.590Z,30.42
2022-07-29T12:36:59.124Z,30.62
2022-07-29T12:39:28.713Z,30.65
2022-07-29T12:42:03.743Z,30.51
2022-07-29T12:44:52.388Z,30.46
2022-07-29T12:47:20.248Z,30.51
2022-07-29T12:49:47.764Z,30.74
2022-07-29T12:52:27.460Z,31.01
2022-07-29T12:54:53.950Z,31.26
2022-07-29T12:57:20.628Z,31.47
2022-07-29T13:00:04.297Z,31.73
2022-07-29T13:02:30.914Z,31.89
2022-07-29T13:04:59.408Z,32.10
2022-07-29T13:07:55.388Z,32.00
2022-07-29T13:10:19.537Z,31.75
2022-07-29T13:13:11.848Z,31.62
2022-07-29T13:15:40.337Z,31.43
2022-07-29T13:18:28.134Z,31.18
2022-07-29T13:20:54.907Z,30.82
2022-07-29T13:23:21.484Z,30.69
2022-07-29T13:25:47.915Z,30.93
2022-07-29T13:28:14.336Z,30.99
2022-07-29T13:30:44.623Z,30.86
2022-07-29T13:33:11.284Z,30.73
2022-07-29T13:35:40.045Z,30.52
2022-07-29T13:38:06.696Z,30.42
2022-07-29T13:40:34.769Z,30.16
2022-07-29T13:43:01.276Z,30.06
2022-07-29T13:45:29.314Z,30.07
2022-07-29T13:47:56.035Z,30.07
2022-07-29T13:50:22.456Z,30.10
2022-07-29T13:52:49.497Z,30.24
2022-07-29T13:55:15.954Z,30.35
2022-07-29T13:57:42.366Z,30.41
2022-07-29T14:00:09.549Z,30.39
2022-07-29T14:02:35.975Z,30.42
2022-07-29T14:05:07.681Z,30.58
2022-07-29T14:07:34.921Z,30.52
2022-07-29T14:10:01.379Z,30.45
2022-07-29T14:12:27.850Z,30.43
2022-07-29T14:14:54.279Z,30.49
2022-07-29T14:17:20.740Z,30.66
2022-07-29T14:19:47.188Z,30.73
2022-07-29T14:22:13.621Z,30.82
2022-07-29T14:24:40.750Z,30.61
2022-07-29T14:27:08.608Z,30.39
2022-07-29T14:29:38.118Z,30.32
2022-07-29T14:32:08.752Z,30.30
2022-07-29T14:34:36.317Z,30.50
2022-07-29T14:37:03.800Z,30.84
2022-07-29T14:39:32.022Z,31.32
2022-07-29T14:41:59.082Z,31.73
2022-07-29T14:44:31.764Z,31.98
2022-07-29T14:47:07.717Z,31.95
2022-07-29T14:49:34.607Z,32.21
2022-07-29T14:52:01.353Z,32.41
2022-07-29T14:54:27.957Z,32.45
2022-07-29T14:56:57.771Z,32.59
2022-07-29T14:59:24.476Z,32.84
2022-07-29T15:01:51.006Z,32.95
2022-07-29T15:04:17.493Z,33.16
2022-07-29T15:06:44.042Z,33.00
2022-07-29T15:09:10.461Z,32.94
2022-07-29T15:11:38.655Z,33.07
2022-07-29T15:14:05.805Z,32.93
2022-07-29T15:16:32.542Z,32.93
2022-07-29T15:19:01.217Z,33.09
2022-07-29T15:21:28.067Z,33.01
2022-07-29T15:23:54.659Z,32.57
2022-07-29T15:26:21.118Z,32.57
2022-07-29T15:28:48.031Z,32.21
2022-07-29T15:31:14.566Z,32.21
2022-07-29T15:33:41.049Z,32.26
2022-07-29T15:36:07.548Z,31.99
2022-07-29T15:38:33.951Z,31.76
2022-07-29T15:41:00.662Z,31.53
2022-07-29T15:43:27.135Z,31.41
2022-07-29T15:46:12.184Z,31.32
2022-07-29T15:48:39.839Z,31.16
2022-07-29T15:51:06.599Z,31.21
2022-07-29T15:53:33.831Z,31.38
2022-07-29T15:56:02.101Z,31.73
2022-07-29T15:58:28.525Z,32.07
2022-07-29T16:00:55.073Z,32.26
2022-07-29T16:03:22.810Z,32.26
2022-07-29T16:05:49.304Z,32.08
2022-07-29T16:08:15.719Z,32.07
2022-07-29T16:10:42.169Z,31.86
2022-07-29T16:13:08.676Z,31.89
2022-07-29T16:15:35.340Z,31.82
2022-07-29T16:18:01.829Z,31.58
2022-07-29T16:20:29.580Z,31.07
2022-07-29T16:22:56.092Z,30.64
2022-07-29T16:25:38.352Z,30.51
2022-07-29T16:28:09.185Z,30.28
2022-07-29T16:30:36.449Z,29.88
2022-07-29T16:33:07.827Z,29.63
2022-07-29T16:35:39.266Z,29.17
2022-07-29T16:38:06.619Z,28.86
2022-07-29T16:40:33.114Z,28.61
2022-07-29T16:42:59.958Z,28.45
2022-07-29T16:45:26.532Z,28.33
2022-07-29T16:48:01.031Z,28.25
2022-07-29T16:50:28.808Z,28.13
2022-07-29T16:52:56.185Z,27.96
2022-07-29T16:55:22.903Z,27.87
2022-07-29T16:57:52.522Z,27.81
2022-07-29T17:00:20.462Z,27.74
2022-07-29T17:02:46.939Z,27.65
2022-07-29T17:05:13.841Z,27.61
2022-07-29T17:07:40.643Z,27.57
2022-07-29T17:10:10.669Z,27.52
2022-07-29T17:12:37.992Z,27.44
2022-07-29T17:15:06.072Z,27.37
2022-07-29T17:17:38.652Z,27.28
2022-07-29T17:20:10.709Z,27.18
2022-07-29T17:22:38.287Z,27.12
2022-07-29T17:25:05.213Z,26.97
2022-07-29T17:27:32.693Z,26.94
2022-07-29T17:29:59.745Z,26.87
2022-07-29T17:32:26.476Z,26.81
2022-07-29T17:34:52.938Z,26.74
2022-07-29T17:37:19.548Z,26.67
2022-07-29T17:39:46.176Z,26.55
2022-07-29T17:42:13.982Z,26.46
2022-07-29T17:44:40.870Z,26.45
2022-07-29T17:47:15.940Z,26.45
2022-07-29T17:49:43.335Z,26.43
2022-07-29T17:52:10.182Z,26.53
2022-07-29T17:54:36.869Z,26.52
2022-07-29T17:57:03.339Z,26.64
2022-07-29T17:59:29.826Z,26.72
2022-07-29T18:01:56.330Z,26.82
2022-07-29T18:04:23.527Z,26.93
2022-07-29T18:06:50.289Z,27.00
2022-07-29T18:09:16.812Z,27.09
2022-07-29T18:11:44.563Z,27.16
2022-07-29T18:14:12.309Z,27.18
2022-07-29T18:16:38.839Z,27.08
2022-07-29T18:19:05.355Z,27.06
2022-07-29T18:21:43.688Z,27.08
2022-07-29T18:24:18.129Z,27.00
2022-07-29T18:26:44.555Z,26.95
2022-07-29T18:29:11.007Z,26.86
2022-07-29T18:31:37.661Z,26.85
2022-07-29T18:34:04.140Z,26.78
2022-07-29T18:36:30.781Z,26.75
2022-07-29T18:38:57.196Z,26.73
2022-07-29T18:41:23.639Z,26.69
2022-07-29T18:43:50.024Z,26.66
2022-07-29T18:46:16.578Z,26.61
2022-07-29T18:48:43.130Z,26.56
2022-07-29T18:51:09.720Z,26.50
2022-07-29T18:53:36.847Z,26.39
2022-07-29T18:56:03.815Z,26.34
2022-07-29T18:58:30.249Z,26.27
2022-07-29T19:00:56.657Z,26.21
2022-07-29T19:03:23.057Z,26.11
2022-07-29T19:05:49.627Z,26.00
2022-07-29T19:08:16.032Z,25.89
2022-07-29T19:10:42.470Z,25.81
2022-07-29T19:13:08.966Z,25.70
2022-07-29T19:15:39.997Z,25.58
2022-07-29T19:18:07.079Z,25.49
2022-07-29T19:20:33.628Z,25.36
2022-07-29T19:23:00.105Z,25.28
2022-07-29T19:25:26.600Z,25.17
2022-07-29T19:27:53.027Z,25.05
2022-07-29T19:30:19.554Z,24.98
2022-07-29T19:32:45.978Z,24.91
2022-07-29T19:35:24.344Z,24.85
2022-07-29T19:37:56.474Z,24.78
2022-07-29T19:40:22.952Z,24.69
2022-07-29T19:42:51.494Z,24.62
2022-07-29T19:45:17.971Z,24.57
2022-07-29T19:47:44.379Z,24.49
2022-07-29T19:50:11.281Z,24.44
2022-07-29T19:52:38.158Z,24.33
2022-07-29T19:55:07.835Z,24.22
2022-07-29T19:57:40.898Z,24.08
2022-07-29T20:00:11.107Z,23.93
2022-07-29T20:02:38.771Z,23.82
2022-07-29T20:05:05.864Z,23.72
2022-07-29T20:07:32.325Z,23.61
2022-07-29T20:09:58.757Z,23.50
2022-07-29T20:12:25.390Z,23.37
2022-07-29T20:14:52.211Z,23.26
2022-07-29T20:17:25.677Z,23.16
2022-07-29T20:19:53.497Z,23.05
2022-07-29T20:22:21.563Z,22.95
2022-07-29T20:24:48.607Z,22.86
2022-07-29T20:27:15.013Z,22.77
2022-07-29T20:29:41.506Z,22.71
2022-07-29T20:32:08.108Z,22.63
2022-07-29T20:34:34.642Z,22.55
2022-07-29T20:37:02.694Z,22.46
2022-07-29T20:39:30.239Z,22.38
2022-07-29T20:41:56.725Z,22.27
2022-07-29T20:44:24.238Z,22.17
2022-07-29T20:46:50.673Z,22.08
2022-07-29T20:49:17.225Z,22.01
2022-07-29T20:51:44.148Z,21.93
2022-07-29T20:54:11.098Z,21.82
2022-07-29T20:56:38.122Z,21.72
2022-07-29T20:59:04.579Z,21.61
2022-07-29T21:01:31.081Z,21.52
2022-07-29T21:03:57.541Z,21.44
2022-07-29T21:06:23.984Z,21.36
2022-07-29T21:08:50.373Z,21.30
2022-07-29T21:11:16.802Z,21.24
2022-07-29T21:13:45.377Z,21.14
2022-07-29T21:16:14.942Z,21.08
2022-07-29T21:18:43.963Z,21.00
2022-07-29T21:21:10.544Z,20.93
2022-07-29T21:26:03.754Z,20.85
2022-07-29T21:28:35.676Z,20.78
2022-07-29T21:31:05.399Z,20.72
2022-07-29T21:33:33.403Z,20.67
2022-07-29T21:36:26.621Z,20.60
2022-07-29T21:38:47.340Z,20.50
2022-07-29T21:41:14.837Z,20.48
2022-07-29T21:43:42.304Z,20.41
2022-07-29T21:46:09.180Z,20.33
2022-07-29T21:48:35.682Z,20.30
2022-07-29T21:51:02.182Z,20.27
2022-07-29T21:53:28.647Z,20.24
2022-07-29T21:55:55.487Z,20.22
2022-07-29T21:58:22.796Z,20.21
2022-07-29T22:00:49.211Z,20.19
2022-07-29T22:03:15.657Z,20.20
2022-07-29T22:05:42.458Z,20.21
2022-07-29T22:08:08.999Z,20.21
2022-07-29T22:10:35.785Z,20.21
2022-07-29T22:13:02.995Z,20.22
2022-07-29T22:15:30.389Z,20.24
2022-07-29T22:17:57.055Z,20.22
2022-07-29T22:20:24.099Z,20.24
2022-07-29T22:22:50.515Z,20.24
2022-07-29T22:25:17.656Z,20.26
2022-07-29T22:27:44.236Z,20.26
2022-07-29T22:30:11.109Z,20.26
2022-07-29T22:32:37.642Z,20.28
2022-07-29T22:35:04.318Z,20.29
2022-07-29T22:37:30.828Z,20.31
2022-07-29T22:39:57.313Z,20.29
2022-07-29T22:42:23.822Z,20.30
2022-07-29T22:44:50.279Z,20.29
2022-07-29T22:47:16.773Z,20.30
2022-07-29T22:49:43.197Z,20.30
2022-07-29T22:52:09.944Z,20.30
2022-07-29T22:54:38.230Z,20.28
2022-07-29T22:57:05.675Z,20.27
2022-07-29T22:59:32.244Z,20.27
2022-07-29T23:01:58.686Z,20.26
2022-07-29T23:04:25.393Z,20.26
2022-07-29T23:06:51.866Z,20.24
2022-07-29T23:09:18.519Z,20.22
2022-07-29T23:11:45.031Z,20.20
2022-07-29T23:14:11.484Z,20.18
2022-07-29T23:16:38.025Z,20.15
2022-07-29T23:19:04.504Z,20.11
2022-07-29T23:21:30.958Z,20.09
2022-07-29T23:23:57.358Z,20.09
2022-07-29T23:26:23.812Z,20.06
2022-07-29T23:28:50.280Z,20.05
2022-07-29T23:31:17.345Z,20.01
2022-07-29T23:33:43.865Z,19.99
2022-07-29T23:36:10.366Z,19.95
2022-07-29T23:38:40.935Z,19.92
2022-07-29T23:41:09.564Z,19.85
2022-07-29T23:43:37.048Z,19.81
2022-07-29T23:46:03.730Z,19.73
2022-07-29T23:48:31.893Z,19.66
2022-07-29T23:51:00.339Z,19.60
2022-07-29T23:53:27.729Z,19.56
2022-07-29T23:55:54.141Z,19.51
2022-07-29T23:58:20.576Z,19.49
